Time,TemperatureF,DewpointF,PressureIn,WindDirection,WindDirectionDegrees,WindSpeedMPH,WindSpeedGustMPH,Humidity,HourlyPrecipIn,Conditions,Clouds,dailyrainin,SoftwareType,DateUTC
2013-02-03 00:05:00,53.3,39.3,30.26,SW,227,2.0,3.0,59,0.00,,,0.00,Wunderground v.1.15,2013-02-03 06:05:00,
2013-02-03 00:10:00,53.3,38.9,30.26,SW,227,2.0,2.0,58,0.00,,,0.00,Wunderground v.1.15,2013-02-03 06:10:00,
2013-02-03 00:20:00,53.3,38.4,30.26,SW,229,3.0,3.0,57,0.00,,,0.00,Wunderground v.1.15,2013-02-03 06:20:00,
2013-02-03 00:25:00,53.5,38.2,30.26,SW,230,3.0,3.0,56,0.00,,,0.00,Wunderground v.1.15,2013-02-03 06:25:00,
2013-02-03 00:35:00,53.3,38.0,30.26,SW,232,3.0,3.0,56,0.00,,,0.00,Wunderground v.1.15,2013-02-03 06:35:00,
2013-02-03 00:40:00,53.3,38.0,30.26,SW,232,2.0,2.0,56,0.00,,,0.00,Wunderground v.1.15,2013-02-03 06:40:00,
2013-02-03 00:50:00,53.2,38.4,30.26,SW,234,2.0,2.0,57,0.00,,,0.00,Wunderground v.1.15,2013-02-03 06:50:00,
2013-02-03 00:55:00,53.2,37.9,30.26,SW,234,2.0,2.0,56,0.00,,,0.00,Wunderground v.1.15,2013-02-03 06:55:00,
2013-02-03 01:05:00,53.2,37.9,30.25,WSW,241,3.0,6.0,56,0.00,,,0.00,Wunderground v.1.15,2013-02-03 07:05:00,
2013-02-03 01:10:00,53.2,37.9,30.25,WSW,241,2.0,3.0,56,0.00,,,0.00,Wunderground v.1.15,2013-02-03 07:10:00,
2013-02-03 01:20:00,52.9,37.6,30.25,WSW,241,2.0,3.0,56,0.00,,,0.00,Wunderground v.1.15,2013-02-03 07:20:00,
2013-02-03 01:25:00,52.8,37.5,30.25,WSW,241,2.0,3.0,56,0.00,,,0.00,Wunderground v.1.15,2013-02-03 07:25:00,
2013-02-03 01:35:00,52.5,38.1,30.25,WSW,241,1.0,2.0,58,0.00,,,0.00,Wunderground v.1.15,2013-02-03 07:35:00,
2013-02-03 01:40:00,52.3,37.5,30.25,WSW,241,1.0,1.0,57,0.00,,,0.00,Wunderground v.1.15,2013-02-03 07:40:00,
2013-02-03 01:50:00,51.9,37.6,30.25,WSW,241,1.0,2.0,58,0.00,,,0.00,Wunderground v.1.15,2013-02-03 07:50:00,
2013-02-03 01:55:00,51.7,37.8,30.25,WSW,241,1.0,2.0,59,0.00,,,0.00,Wunderground v.1.15,2013-02-03 07:55:00,
2013-02-03 02:05:00,51.4,37.1,30.25,WSW,241,1.0,3.0,58,0.00,,,0.00,Wunderground v.1.15,2013-02-03 08:05:00,
2013-02-03 02:10:00,51.3,37.0,30.25,WSW,241,2.0,2.0,58,0.00,,,0.00,Wunderground v.1.15,2013-02-03 08:10:00,
2013-02-03 02:20:00,51.3,36.1,30.25,WSW,241,2.0,4.0,56,0.00,,,0.00,Wunderground v.1.15,2013-02-03 08:20:00,
2013-02-03 02:25:00,51.3,36.6,30.25,WSW,241,2.0,4.0,57,0.00,,,0.00,Wunderground v.1.15,2013-02-03 08:25:00,
2013-02-03 02:34:00,51.4,36.2,30.25,WSW,241,2.0,3.0,56,0.00,,,0.00,Wunderground v.1.15,2013-02-03 08:34:00,
2013-02-03 02:40:00,51.6,35.9,30.25,WSW,243,3.0,3.0,55,0.00,,,0.00,Wunderground v.1.15,2013-02-03 08:40:00,
2013-02-03 02:50:00,51.6,35.9,30.25,WSW,243,3.0,3.0,55,0.00,,,0.00,Wunderground v.1.15,2013-02-03 08:50:00,
2013-02-03 02:55:00,51.6,35.5,30.25,WSW,243,3.0,3.0,54,0.00,,,0.00,Wunderground v.1.15,2013-02-03 08:55:00,
2013-02-03 03:05:00,51.4,35.8,30.25,WSW,243,2.0,3.0,55,0.00,,,0.00,Wunderground v.1.15,2013-02-03 09:05:00,
2013-02-03 03:10:00,51.3,35.7,30.25,WSW,243,3.0,3.0,55,0.00,,,0.00,Wunderground v.1.15,2013-02-03 09:10:00,
2013-02-03 03:20:00,50.8,35.7,30.25,WSW,243,2.0,2.0,56,0.00,,,0.00,Wunderground v.1.15,2013-02-03 09:20:00,
2013-02-03 03:25:00,50.7,35.6,30.26,WSW,243,2.0,3.0,56,0.00,,,0.00,Wunderground v.1.15,2013-02-03 09:25:00,
2013-02-03 03:35:00,50.1,35.4,30.26,WSW,243,1.0,2.0,57,0.00,,,0.00,Wunderground v.1.15,2013-02-03 09:35:00,
2013-02-03 03:40:00,49.8,35.6,30.26,WSW,243,0.0,0.0,58,0.00,,,0.00,Wunderground v.1.15,2013-02-03 09:40:00,
2013-02-03 03:50:00,48.9,35.2,30.26,WSW,243,0.0,0.0,59,0.00,,,0.00,Wunderground v.1.15,2013-02-03 09:50:00,
2013-02-03 03:55:00,48.3,35.5,30.26,WSW,243,0.0,0.0,61,0.00,,,0.00,Wunderground v.1.15,2013-02-03 09:55:00,
2013-02-03 04:05:00,47.3,35.3,30.27,WSW,243,0.0,0.0,63,0.00,,,0.00,Wunderground v.1.15,2013-02-03 10:05:00,
2013-02-03 04:10:00,46.4,34.9,30.27,WSW,243,0.0,0.0,64,0.00,,,0.00,Wunderground v.1.15,2013-02-03 10:10:00,
2013-02-03 04:20:00,45.2,34.9,30.27,WSW,243,0.0,0.0,67,0.00,,,0.00,Wunderground v.1.15,2013-02-03 10:20:00,
2013-02-03 04:25:00,44.6,34.7,30.27,WSW,243,0.0,0.0,68,0.00,,,0.00,Wunderground v.1.15,2013-02-03 10:25:00,
2013-02-03 04:35:00,43.8,34.6,30.27,WSW,243,0.0,0.0,70,0.00,,,0.00,Wunderground v.1.15,2013-02-03 10:35:00,
2013-02-03 04:40:00,43.2,34.4,30.27,WSW,243,0.0,0.0,71,0.00,,,0.00,Wunderground v.1.15,2013-02-03 10:40:00,
2013-02-03 04:50:00,42.5,34.1,30.27,WSW,243,0.0,0.0,72,0.00,,,0.00,Wunderground v.1.15,2013-02-03 10:50:00,
2013-02-03 04:55:00,42.1,34.1,30.27,WSW,243,0.0,0.0,73,0.00,,,0.00,Wunderground v.1.15,2013-02-03 10:55:00,
2013-02-03 05:05:00,41.5,33.8,30.28,WSW,243,0.0,0.0,74,0.00,,,0.00,Wunderground v.1.15,2013-02-03 11:05:00,
2013-02-03 05:10:00,41.2,33.9,30.28,WSW,243,0.0,0.0,75,0.00,,,0.00,Wunderground v.1.15,2013-02-03 11:10:00,
2013-02-03 05:20:00,40.8,33.8,30.28,WSW,243,0.0,0.0,76,0.00,,,0.00,Wunderground v.1.15,2013-02-03 11:20:00,
2013-02-03 05:25:00,40.5,33.5,30.28,WSW,243,0.0,0.0,76,0.00,,,0.00,Wunderground v.1.15,2013-02-03 11:25:00,
2013-02-03 05:35:00,40.2,33.6,30.28,WSW,243,0.0,0.0,77,0.00,,,0.00,Wunderground v.1.15,2013-02-03 11:35:00,
2013-02-03 05:40:00,39.9,33.6,30.29,WSW,243,0.0,0.0,78,0.00,,,0.00,Wunderground v.1.15,2013-02-03 11:40:00,
2013-02-03 05:50:00,39.6,33.6,30.29,WSW,243,0.0,0.0,79,0.00,,,0.00,Wunderground v.1.15,2013-02-03 11:50:00,
2013-02-03 05:55:00,39.6,33.6,30.29,WSW,243,0.0,0.0,79,0.00,,,0.00,Wunderground v.1.15,2013-02-03 11:55:00,
2013-02-03 06:05:00,39.5,33.5,30.30,WSW,243,0.0,0.0,79,0.00,,,0.00,Wunderground v.1.15,2013-02-03 12:05:00,
2013-02-03 06:10:00,39.5,33.8,30.30,WSW,243,0.0,0.0,80,0.00,,,0.00,Wunderground v.1.15,2013-02-03 12:10:00,
2013-02-03 06:20:00,39.3,33.6,30.30,WSW,243,0.0,0.0,80,0.00,,,0.00,Wunderground v.1.15,2013-02-03 12:20:00,
2013-02-03 06:25:00,39.3,33.6,30.30,WSW,243,0.0,0.0,80,0.00,,,0.00,Wunderground v.1.15,2013-02-03 12:25:00,
2013-02-03 06:35:00,39.3,33.6,30.30,WSW,243,0.0,0.0,80,0.00,,,0.00,Wunderground v.1.15,2013-02-03 12:35:00,
2013-02-03 06:40:00,39.3,33.6,30.30,WSW,243,0.0,0.0,80,0.00,,,0.00,Wunderground v.1.15,2013-02-03 12:40:00,
2013-02-03 06:50:00,39.5,33.8,30.30,WSW,243,0.0,0.0,80,0.00,,,0.00,Wunderground v.1.15,2013-02-03 12:50:00,
2013-02-03 06:55:00,39.6,33.9,30.31,WSW,243,0.0,0.0,80,0.00,,,0.00,Wunderground v.1.15,2013-02-03 12:55:00,
2013-02-03 07:05:00,39.9,34.2,30.31,WSW,243,0.0,0.0,80,0.00,,,0.00,Wunderground v.1.15,2013-02-03 13:05:00,
2013-02-03 07:10:00,40.1,34.1,30.32,WSW,243,0.0,0.0,79,0.00,,,0.00,Wunderground v.1.15,2013-02-03 13:10:00,
2013-02-03 07:20:00,40.3,34.3,30.32,WSW,243,0.0,0.0,79,0.00,,,0.00,Wunderground v.1.15,2013-02-03 13:20:00,
2013-02-03 07:25:00,40.3,34.0,30.32,WSW,243,0.0,0.0,78,0.00,,,0.00,Wunderground v.1.15,2013-02-03 13:25:00,
2013-02-03 07:35:00,40.3,34.3,30.32,WSW,243,0.0,0.0,79,0.00,,,0.00,Wunderground v.1.15,2013-02-03 13:35:00,
2013-02-03 07:40:00,40.3,34.3,30.32,WSW,243,0.0,0.0,79,0.00,,,0.00,Wunderground v.1.15,2013-02-03 13:40:00,
2013-02-03 07:50:00,40.2,34.2,30.32,WSW,243,0.0,0.0,79,0.00,,,0.00,Wunderground v.1.15,2013-02-03 13:50:00,
2013-02-03 07:55:00,40.2,34.5,30.32,WSW,243,0.0,0.0,80,0.00,,,0.00,Wunderground v.1.15,2013-02-03 13:55:00,
2013-02-03 08:05:00,40.2,34.5,30.33,WSW,243,0.0,0.0,80,0.00,,,0.00,Wunderground v.1.15,2013-02-03 14:05:00,
2013-02-03 08:10:00,40.3,34.6,30.33,WSW,243,0.0,0.0,80,0.00,,,0.00,Wunderground v.1.15,2013-02-03 14:10:00,
2013-02-03 08:20:00,40.5,35.1,30.33,WSW,243,0.0,0.0,81,0.00,,,0.00,Wunderground v.1.15,2013-02-03 14:20:00,
2013-02-03 08:25:00,40.8,35.7,30.33,WSW,243,0.0,0.0,82,0.00,,,0.00,Wunderground v.1.15,2013-02-03 14:25:00,
2013-02-03 08:35:00,41.9,37.1,30.33,WSW,243,0.0,0.0,83,0.00,,,0.00,Wunderground v.1.15,2013-02-03 14:35:00,
2013-02-03 08:40:00,42.8,37.7,30.33,WSW,243,0.0,0.0,82,0.00,,,0.00,Wunderground v.1.15,2013-02-03 14:40:00,
2013-02-03 08:50:00,44.5,38.1,30.33,WSW,243,0.0,0.0,78,0.00,,,0.00,Wunderground v.1.15,2013-02-03 14:50:00,
2013-02-03 08:55:00,45.1,38.0,30.33,WSW,243,0.0,0.0,76,0.00,,,0.00,Wunderground v.1.15,2013-02-03 14:55:00,
2013-02-03 09:05:00,46.2,38.0,30.33,WSW,243,0.0,2.0,73,0.00,,,0.00,Wunderground v.1.15,2013-02-03 15:05:00,
2013-02-03 09:10:00,46.8,37.9,30.33,WSW,243,1.0,1.0,71,0.00,,,0.00,Wunderground v.1.15,2013-02-03 15:10:00,
2013-02-03 09:20:00,49.2,36.7,30.33,ESE,117,2.0,6.0,62,0.00,,,0.00,Wunderground v.1.15,2013-02-03 15:20:00,
2013-02-03 09:25:00,51.4,35.3,30.32,ENE,73,4.0,6.0,54,0.00,,,0.00,Wunderground v.1.15,2013-02-03 15:25:00,
2013-02-03 09:35:00,54.1,35.9,30.32,East,85,5.0,5.0,50,0.00,,,0.00,Wunderground v.1.15,2013-02-03 15:35:00,
2013-02-03 09:40:00,55.3,36.5,30.32,East,86,5.0,5.0,49,0.00,,,0.00,Wunderground v.1.15,2013-02-03 15:40:00,
2013-02-03 09:50:00,56.7,36.7,30.31,East,89,4.0,5.0,47,0.00,,,0.00,Wunderground v.1.15,2013-02-03 15:50:00,
2013-02-03 09:55:00,56.9,36.9,30.32,East,92,5.0,5.0,47,0.00,,,0.00,Wunderground v.1.15,2013-02-03 15:55:00,
2013-02-03 10:05:00,56.6,35.5,30.32,East,90,5.0,6.0,45,0.00,,,0.00,Wunderground v.1.15,2013-02-03 16:05:00,
2013-02-03 10:10:00,56.3,35.8,30.32,East,90,5.0,5.0,46,0.00,,,0.00,Wunderground v.1.15,2013-02-03 16:10:00,
2013-02-03 10:20:00,57.0,37.0,30.32,East,92,5.0,6.0,47,0.00,,,0.00,Wunderground v.1.15,2013-02-03 16:20:00,
2013-02-03 10:25:00,57.5,35.7,30.32,East,93,4.0,6.0,44,0.00,,,0.00,Wunderground v.1.15,2013-02-03 16:25:00,
2013-02-03 10:35:00,58.9,37.0,30.31,East,95,5.0,7.0,44,0.00,,,0.00,Wunderground v.1.15,2013-02-03 16:35:00,
2013-02-03 10:40:00,59.9,36.1,30.31,East,93,5.0,5.0,41,0.00,,,0.00,Wunderground v.1.15,2013-02-03 16:40:00,
2013-02-03 10:50:00,61.3,36.1,30.30,East,93,4.0,4.0,39,0.00,,,0.00,Wunderground v.1.15,2013-02-03 16:50:00,
2013-02-03 10:55:00,62.0,34.7,30.30,East,96,4.0,4.0,36,0.00,,,0.00,Wunderground v.1.15,2013-02-03 16:55:00,
2013-02-03 11:05:00,62.7,35.3,30.30,East,95,4.0,6.0,36,0.00,,,0.00,Wunderground v.1.15,2013-02-03 17:05:00,
2013-02-03 11:10:00,62.7,34.6,30.29,East,95,6.0,9.0,35,0.00,,,0.00,Wunderground v.1.15,2013-02-03 17:10:00,
2013-02-03 11:20:00,63.2,33.6,30.29,East,82,5.0,7.0,33,0.00,,,0.00,Wunderground v.1.15,2013-02-03 17:20:00,
2013-02-03 11:25:00,63.7,30.0,30.28,East,89,5.0,7.0,28,0.00,,,0.00,Wunderground v.1.15,2013-02-03 17:25:00,
2013-02-03 11:35:00,64.5,30.6,30.28,East,99,6.0,7.0,28,0.00,,,0.00,Wunderground v.1.15,2013-02-03 17:35:00,
2013-02-03 11:40:00,65.2,31.2,30.28,ESE,102,6.0,6.0,28,0.00,,,0.00,Wunderground v.1.15,2013-02-03 17:40:00,
2013-02-03 11:50:00,65.5,29.7,30.27,East,93,6.0,6.0,26,0.00,,,0.00,Wunderground v.1.15,2013-02-03 17:50:00,
2013-02-03 11:55:00,65.6,26.8,30.27,East,95,7.0,7.0,23,0.00,,,0.00,Wunderground v.1.15,2013-02-03 17:55:00,
2013-02-03 12:05:00,65.6,26.8,30.26,East,92,7.0,12.0,23,0.00,,,0.00,Wunderground v.1.15,2013-02-03 18:05:00,
2013-02-03 12:10:00,66.0,26.0,30.26,East,86,7.0,7.0,22,0.00,,,0.00,Wunderground v.1.15,2013-02-03 18:10:00,
2013-02-03 12:20:00,66.8,28.8,30.25,East,83,6.0,6.0,24,0.00,,,0.00,Wunderground v.1.15,2013-02-03 18:20:00,
2013-02-03 12:25:00,66.8,26.7,30.24,ESE,102,6.0,6.0,22,0.00,,,0.00,Wunderground v.1.15,2013-02-03 18:25:00,
2013-02-03 12:35:00,67.6,26.2,30.23,East,100,4.0,6.0,21,0.00,,,0.00,Wunderground v.1.15,2013-02-03 18:35:00,
2013-02-03 12:40:00,67.8,26.4,30.23,ESE,104,6.0,6.0,21,0.00,,,0.00,Wunderground v.1.15,2013-02-03 18:40:00,
2013-02-03 12:50:00,68.1,26.7,30.22,East,92,5.0,5.0,21,0.00,,,0.00,Wunderground v.1.15,2013-02-03 18:50:00,
2013-02-03 12:55:00,68.4,28.0,30.21,East,95,5.0,5.0,22,0.00,,,0.00,Wunderground v.1.15,2013-02-03 18:55:00,
2013-02-03 13:04:00,68.9,26.1,30.20,SE,137,4.0,5.0,20,0.00,,,0.00,Wunderground v.1.15,2013-02-03 19:04:00,
2013-02-03 13:10:00,69.1,28.6,30.20,SE,128,5.0,5.0,22,0.00,,,0.00,Wunderground v.1.15,2013-02-03 19:10:00,
2013-02-03 13:20:00,69.4,28.9,30.20,SSE,147,5.0,5.0,22,0.00,,,0.00,Wunderground v.1.15,2013-02-03 19:20:00,
2013-02-03 13:25:00,69.4,26.6,30.19,SE,141,4.0,5.0,20,0.00,,,0.00,Wunderground v.1.15,2013-02-03 19:25:00,
2013-02-03 13:35:00,69.9,30.4,30.18,SE,138,3.0,4.0,23,0.00,,,0.00,Wunderground v.1.15,2013-02-03 19:35:00,
2013-02-03 13:40:00,69.8,31.4,30.18,SE,138,3.0,3.0,24,0.00,,,0.00,Wunderground v.1.15,2013-02-03 19:40:00,
2013-02-03 13:50:00,69.8,31.4,30.16,SE,140,3.0,3.0,24,0.00,,,0.00,Wunderground v.1.15,2013-02-03 19:50:00,
2013-02-03 13:55:00,69.9,31.4,30.16,ESE,123,4.0,7.0,24,0.00,,,0.00,Wunderground v.1.15,2013-02-03 19:55:00,
2013-02-03 14:05:00,70.3,33.8,30.15,ESE,113,3.0,5.0,26,0.00,,,0.00,Wunderground v.1.15,2013-02-03 20:05:00,
2013-02-03 14:10:00,70.9,31.2,30.15,ESE,113,1.0,1.0,23,0.00,,,0.00,Wunderground v.1.15,2013-02-03 20:10:00,
2013-02-03 14:20:00,71.3,34.6,30.14,ESE,113,1.0,1.0,26,0.00,,,0.00,Wunderground v.1.15,2013-02-03 20:20:00,
2013-02-03 14:25:00,70.9,32.3,30.13,ESE,114,2.0,4.0,24,0.00,,,0.00,Wunderground v.1.15,2013-02-03 20:25:00,
2013-02-03 14:35:00,70.8,33.2,30.13,ESE,104,4.0,7.0,25,0.00,,,0.00,Wunderground v.1.15,2013-02-03 20:35:00,
2013-02-03 14:40:00,70.6,33.0,30.12,East,100,4.0,5.0,25,0.00,,,0.00,Wunderground v.1.15,2013-02-03 20:40:00,
2013-02-03 14:50:00,70.4,33.9,30.12,SE,124,5.0,6.0,26,0.00,,,0.00,Wunderground v.1.15,2013-02-03 20:50:00,
2013-02-03 14:55:00,70.3,34.7,30.11,ESE,112,5.0,8.0,27,0.00,,,0.00,Wunderground v.1.15,2013-02-03 20:55:00,
2013-02-03 15:05:00,70.3,35.6,30.11,ESE,113,3.0,4.0,28,0.00,,,0.00,Wunderground v.1.15,2013-02-03 21:05:00,
2013-02-03 15:10:00,69.9,35.3,30.11,SE,127,3.0,6.0,28,0.00,,,0.00,Wunderground v.1.15,2013-02-03 21:10:00,
2013-02-03 15:20:00,70.1,35.5,30.10,SE,124,4.0,5.0,28,0.00,,,0.00,Wunderground v.1.15,2013-02-03 21:20:00,
2013-02-03 15:25:00,69.9,36.2,30.10,ESE,113,4.0,5.0,29,0.00,,,0.00,Wunderground v.1.15,2013-02-03 21:25:00,
2013-02-03 15:35:00,69.9,36.2,30.10,ESE,116,4.0,4.0,29,0.00,,,0.00,Wunderground v.1.15,2013-02-03 21:35:00,
2013-02-03 15:40:00,69.6,35.9,30.09,ESE,113,4.0,4.0,29,0.00,,,0.00,Wunderground v.1.15,2013-02-03 21:40:00,
2013-02-03 15:50:00,68.4,38.2,30.09,ESE,116,2.0,2.0,33,0.00,,,0.00,Wunderground v.1.15,2013-02-03 21:50:00,
2013-02-03 15:55:00,68.1,37.9,30.09,ESE,117,2.0,2.0,33,0.00,,,0.00,Wunderground v.1.15,2013-02-03 21:55:00,
2013-02-03 16:05:00,67.6,37.5,30.10,ESE,120,3.0,10.0,33,0.00,,,0.00,Wunderground v.1.15,2013-02-03 22:05:00,
2013-02-03 16:10:00,67.3,38.7,30.10,ESE,120,4.0,5.0,35,0.00,,,0.00,Wunderground v.1.15,2013-02-03 22:10:00,
2013-02-03 16:20:00,67.4,38.8,30.10,ESE,121,3.0,3.0,35,0.00,,,0.00,Wunderground v.1.15,2013-02-03 22:20:00,
2013-02-03 16:25:00,67.3,39.4,30.10,ESE,121,1.0,3.0,36,0.00,,,0.00,Wunderground v.1.15,2013-02-03 22:25:00,
2013-02-03 16:35:00,66.6,38.8,30.09,ESE,123,2.0,2.0,36,0.00,,,0.00,Wunderground v.1.15,2013-02-03 22:35:00,
2013-02-03 16:40:00,66.4,40.0,30.09,ESE,123,1.0,1.0,38,0.00,,,0.00,Wunderground v.1.15,2013-02-03 22:40:00,
2013-02-03 16:50:00,66.3,39.9,30.09,ESE,123,1.0,2.0,38,0.00,,,0.00,Wunderground v.1.15,2013-02-03 22:50:00,
2013-02-03 16:55:00,66.1,39.7,30.09,ESE,123,1.0,2.0,38,0.00,,,0.00,Wunderground v.1.15,2013-02-03 22:55:00,
2013-02-03 17:05:00,66.0,41.0,30.09,ESE,123,1.0,1.0,40,0.00,,,0.00,Wunderground v.1.15,2013-02-03 23:05:00,
2013-02-03 17:10:00,65.8,41.4,30.09,ESE,123,2.0,7.0,41,0.00,,,0.00,Wunderground v.1.15,2013-02-03 23:10:00,
2013-02-03 17:20:00,65.6,41.3,30.09,ESE,123,2.0,2.0,41,0.00,,,0.00,Wunderground v.1.15,2013-02-03 23:20:00,
2013-02-03 17:25:00,65.5,41.8,30.09,ESE,123,2.0,2.0,42,0.00,,,0.00,Wunderground v.1.15,2013-02-03 23:25:00,
2013-02-03 17:35:00,65.2,42.1,30.08,ESE,123,1.0,1.0,43,0.00,,,0.00,Wunderground v.1.15,2013-02-03 23:35:00,
2013-02-03 17:40:00,65.0,42.5,30.08,ESE,123,2.0,2.0,44,0.00,,,0.00,Wunderground v.1.15,2013-02-03 23:40:00,
2013-02-03 17:50:00,64.5,42.7,30.08,ESE,123,1.0,1.0,45,0.00,,,0.00,Wunderground v.1.15,2013-02-03 23:50:00,
2013-02-03 17:55:00,64.3,42.5,30.08,ESE,123,0.0,1.0,45,0.00,,,0.00,Wunderground v.1.15,2013-02-03 23:55:00,
2013-02-03 18:05:00,63.9,43.8,30.08,ESE,123,0.0,0.0,48,0.00,,,0.00,Wunderground v.1.15,2013-02-04 00:05:00,
2013-02-03 18:10:00,63.5,43.4,30.08,ESE,123,0.0,0.0,48,0.00,,,0.00,Wunderground v.1.15,2013-02-04 00:10:00,
2013-02-03 18:20:00,62.7,43.8,30.08,ESE,123,0.0,0.0,50,0.00,,,0.00,Wunderground v.1.15,2013-02-04 00:20:00,
2013-02-03 18:25:00,62.4,43.5,30.08,ESE,123,0.0,0.0,50,0.00,,,0.00,Wunderground v.1.15,2013-02-04 00:25:00,
2013-02-03 18:34:00,62.1,43.7,30.08,ESE,123,0.0,0.0,51,0.00,,,0.00,Wunderground v.1.15,2013-02-04 00:34:00,
2013-02-03 18:40:00,61.8,43.5,30.08,ESE,123,0.0,0.0,51,0.00,,,0.00,Wunderground v.1.15,2013-02-04 00:40:00,
2013-02-03 18:50:00,61.3,43.5,30.08,ESE,123,0.0,0.0,52,0.00,,,0.00,Wunderground v.1.15,2013-02-04 00:50:00,
2013-02-03 18:55:00,61.2,43.4,30.07,ESE,123,0.0,3.0,52,0.00,,,0.00,Wunderground v.1.15,2013-02-04 00:55:00,
2013-02-03 19:05:00,61.2,42.9,30.06,ESE,123,1.0,1.0,51,0.00,,,0.00,Wunderground v.1.15,2013-02-04 01:05:00,
2013-02-03 19:10:00,61.3,43.5,30.06,ESE,123,1.0,3.0,52,0.00,,,0.00,Wunderground v.1.15,2013-02-04 01:10:00,
2013-02-03 19:20:00,61.3,43.0,30.06,ESE,123,2.0,2.0,51,0.00,,,0.00,Wunderground v.1.15,2013-02-04 01:20:00,
2013-02-03 19:25:00,61.2,43.4,30.06,ESE,123,2.0,2.0,52,0.00,,,0.00,Wunderground v.1.15,2013-02-04 01:25:00,
2013-02-03 19:35:00,61.0,43.2,30.06,ESE,123,2.0,3.0,52,0.00,,,0.00,Wunderground v.1.15,2013-02-04 01:35:00,
2013-02-03 19:40:00,61.0,43.2,30.06,ESE,123,1.0,2.0,52,0.00,,,0.00,Wunderground v.1.15,2013-02-04 01:40:00,
2013-02-03 19:50:00,60.9,43.1,30.06,ESE,123,1.0,1.0,52,0.00,,,0.00,Wunderground v.1.15,2013-02-04 01:50:00,
2013-02-03 19:55:00,60.9,43.1,30.06,ESE,123,1.0,1.0,52,0.00,,,0.00,Wunderground v.1.15,2013-02-04 01:55:00,
2013-02-03 20:05:00,60.7,43.0,30.05,ESE,123,2.0,2.0,52,0.00,,,0.00,Wunderground v.1.15,2013-02-04 02:05:00,
2013-02-03 20:10:00,60.7,43.0,30.05,ESE,123,2.0,5.0,52,0.00,,,0.00,Wunderground v.1.15,2013-02-04 02:10:00,
2013-02-03 20:20:00,60.5,43.3,30.04,ESE,123,3.0,3.0,53,0.00,,,0.00,Wunderground v.1.15,2013-02-04 02:20:00,
2013-02-03 20:25:00,60.4,43.2,30.04,ESE,123,3.0,3.0,53,0.00,,,0.00,Wunderground v.1.15,2013-02-04 02:25:00,
2013-02-03 20:35:00,60.2,43.5,30.04,ESE,123,1.0,2.0,54,0.00,,,0.00,Wunderground v.1.15,2013-02-04 02:35:00,
2013-02-03 20:40:00,60.2,43.0,30.04,ESE,123,1.0,1.0,53,0.00,,,0.00,Wunderground v.1.15,2013-02-04 02:40:00,
2013-02-03 20:50:00,60.1,43.4,30.04,ESE,123,2.0,5.0,54,0.00,,,0.00,Wunderground v.1.15,2013-02-04 02:50:00,
2013-02-03 20:55:00,60.1,43.4,30.04,ESE,123,2.0,5.0,54,0.00,,,0.00,Wunderground v.1.15,2013-02-04 02:55:00,
2013-02-03 21:05:00,59.9,43.7,30.02,ESE,123,3.0,3.0,55,0.00,,,0.00,Wunderground v.1.15,2013-02-04 03:05:00,
2013-02-03 21:10:00,59.8,43.6,30.01,ESE,123,3.0,5.0,55,0.00,,,0.00,Wunderground v.1.15,2013-02-04 03:10:00,
2013-02-03 21:20:00,59.6,43.9,30.01,ESE,123,3.0,7.0,56,0.00,,,0.00,Wunderground v.1.15,2013-02-04 03:20:00,
2013-02-03 21:25:00,59.6,43.9,30.01,ESE,123,3.0,7.0,56,0.00,,,0.00,Wunderground v.1.15,2013-02-04 03:25:00,
2013-02-03 21:35:00,59.6,43.9,30.00,SE,124,3.0,3.0,56,0.00,,,0.00,Wunderground v.1.15,2013-02-04 03:35:00,
2013-02-03 21:40:00,59.8,44.5,30.00,SE,124,3.0,6.0,57,0.00,,,0.00,Wunderground v.1.15,2013-02-04 03:40:00,
2013-02-03 21:50:00,59.8,45.0,30.00,SE,128,4.0,4.0,58,0.00,,,0.00,Wunderground v.1.15,2013-02-04 03:50:00,
2013-02-03 21:55:00,59.8,45.0,30.01,SE,128,4.0,4.0,58,0.00,,,0.00,Wunderground v.1.15,2013-02-04 03:55:00,
2013-02-03 22:05:00,59.6,45.2,30.00,SE,131,4.0,10.0,59,0.00,,,0.00,Wunderground v.1.15,2013-02-04 04:05:00,
2013-02-03 22:10:00,59.6,45.2,30.00,SE,136,4.0,8.0,59,0.00,,,0.00,Wunderground v.1.15,2013-02-04 04:10:00,
2013-02-03 22:20:00,59.3,45.0,30.00,SE,136,4.0,6.0,59,0.00,,,0.00,Wunderground v.1.15,2013-02-04 04:20:00,
2013-02-03 22:25:00,59.2,44.9,29.99,SE,136,4.0,6.0,59,0.00,,,0.00,Wunderground v.1.15,2013-02-04 04:25:00,
2013-02-03 22:35:00,59.0,45.1,29.98,SE,137,4.0,4.0,60,0.00,,,0.00,Wunderground v.1.15,2013-02-04 04:35:00,
2013-02-03 22:40:00,58.9,45.5,29.99,SE,137,5.0,5.0,61,0.00,,,0.00,Wunderground v.1.15,2013-02-04 04:40:00,
2013-02-03 22:50:00,58.7,45.3,29.99,SSE,150,4.0,7.0,61,0.00,,,0.00,Wunderground v.1.15,2013-02-04 04:50:00,
2013-02-03 22:55:00,58.6,45.6,29.99,SSE,150,3.0,7.0,62,0.00,,,0.00,Wunderground v.1.15,2013-02-04 04:55:00,
2013-02-03 23:05:00,58.4,45.4,29.98,SSE,148,3.0,3.0,62,0.00,,,0.00,Wunderground v.1.15,2013-02-04 05:05:00,
2013-02-03 23:10:00,58.3,45.3,29.99,SSE,148,2.0,2.0,62,0.00,,,0.00,Wunderground v.1.15,2013-02-04 05:10:00,
2013-02-03 23:20:00,58.1,45.6,29.98,SSE,148,3.0,3.0,63,0.00,,,0.00,Wunderground v.1.15,2013-02-04 05:20:00,
2013-02-03 23:25:00,57.8,45.7,29.98,SSE,148,4.0,4.0,64,0.00,,,0.00,Wunderground v.1.15,2013-02-04 05:25:00,
2013-02-03 23:35:00,57.6,45.9,29.98,SSE,148,3.0,3.0,65,0.00,,,0.00,Wunderground v.1.15,2013-02-04 05:35:00,
2013-02-03 23:40:00,57.5,46.2,29.98,SSE,148,3.0,3.0,66,0.00,,,0.00,Wunderground v.1.15,2013-02-04 05:40:00,
2013-02-03 23:50:00,57.3,46.0,29.98,SSE,148,3.0,3.0,66,0.00,,,0.00,Wunderground v.1.15,2013-02-04 05:50:00,
2013-02-03 23:55:00,57.2,46.7,29.97,SSE,148,3.0,3.0,68,0.00,,,0.00,Wunderground v.1.15,2013-02-04 05:55:00,